Time;durP1;ratioP1;P1;durP2;ratioP2;P2;SDS_P1;SDS_P2;PMS_P1;PMS_P2;Temp;Humidity;BMP_temperature;BMP_pressure;BME280_temperature;BME280_humidity;BME280_pressure;Samples;Min_cycle;Max_cycle;Signal;HPM_P1;HPM_P2
2022/07/18 00:00:11;;;;;;;4.55;3.35;;;18.20;99.20;;;;;;4986343;28;20046;-63
2022/07/18 00:02:37;;;;;;;4.72;3.65;;;18.10;99.50;;;;;;4991522;28;20041;-62
2022/07/18 00:05:04;;;;;;;7.05;4.00;;;18.10;99.40;;;;;;4964506;28;20046;-61
2022/07/18 00:07:29;;;;;;;5.90;3.92;;;18.10;99.50;;;;;;5001038;28;20046;-62
2022/07/18 00:09:55;;;;;;;6.18;3.63;;;18.00;99.40;;;;;;4985081;28;20076;-62
2022/07/18 00:12:21;;;;;;;6.60;3.53;;;18.00;99.60;;;;;;4967073;28;20073;-63
2022/07/18 00:14:47;;;;;;;5.55;3.92;;;18.00;99.50;;;;;;4984184;28;20053;-65
2022/07/18 00:17:13;;;;;;;7.13;4.57;;;18.00;99.80;;;;;;4982091;28;20379;-65
2022/07/18 00:19:39;;;;;;;7.00;4.00;;;17.90;99.90;;;;;;5000754;28;20042;-65
2022/07/18 00:22:06;;;;;;;6.72;3.55;;;17.90;99.90;;;;;;4998016;28;20046;-62
2022/07/18 00:24:31;;;;;;;6.45;3.97;;;17.90;99.90;;;;;;4982452;28;20087;-62
2022/07/18 00:26:58;;;;;;;5.10;3.72;;;17.90;99.80;;;;;;5002069;28;22161;-62
2022/07/18 00:29:24;;;;;;;4.53;3.28;;;17.80;99.70;;;;;;4968098;28;20059;-63
2022/07/18 00:31:50;;;;;;;4.50;3.40;;;17.80;99.70;;;;;;4978218;28;20058;-62
2022/07/18 00:34:16;;;;;;;4.85;3.70;;;17.80;99.60;;;;;;4982101;28;20065;-62
2022/07/18 00:36:42;;;;;;;5.97;4.03;;;17.80;99.70;;;;;;4985526;28;20050;-62
2022/07/18 00:39:08;;;;;;;5.85;3.85;;;17.80;99.90;;;;;;4990032;28;20791;-63
2022/07/18 00:41:34;;;;;;;6.25;3.70;;;17.80;99.90;;;;;;4986788;28;20046;-62
2022/07/18 00:44:00;;;;;;;5.05;3.40;;;17.70;99.80;;;;;;4985203;28;20053;-63
2022/07/18 00:46:27;;;;;;;5.95;3.70;;;17.70;99.70;;;;;;4980450;28;20132;-63
2022/07/18 00:48:54;;;;;;;6.07;3.63;;;17.70;99.80;;;;;;5000305;28;20045;-63
2022/07/18 00:51:21;;;;;;;7.03;4.20;;;17.70;99.90;;;;;;5002803;28;20488;-62
2022/07/18 00:53:49;;;;;;;7.28;4.10;;;17.70;99.90;;;;;;4983551;28;20785;-63
2022/07/18 00:56:20;;;;;;;6.97;4.25;;;17.60;99.90;;;;;;4985125;28;20080;-62
2022/07/18 00:58:46;;;;;;;6.50;4.00;;;17.60;99.90;;;;;;4996278;28;20084;-63
2022/07/18 01:03:57;;;;;;;4.38;3.75;;;17.60;99.90;;;;;;4984811;28;20050;-62
2022/07/18 01:06:23;;;;;;;7.10;4.55;;;17.60;99.90;;;;;;4988999;28;20049;-63
2022/07/18 01:08:49;;;;;;;7.30;4.50;;;17.60;99.90;;;;;;4984304;28;20077;-61
2022/07/18 01:11:15;;;;;;;9.38;4.53;;;17.60;99.90;;;;;;4984961;28;20122;-63
2022/07/18 01:13:41;;;;;;;6.57;4.25;;;17.60;99.90;;;;;;4981240;28;20457;-63
2022/07/18 01:16:07;;;;;;;6.47;4.10;;;17.60;99.90;;;;;;5000244;28;20050;-62
2022/07/18 01:18:33;;;;;;;5.65;3.70;;;17.50;99.90;;;;;;4999101;28;20046;-62
2022/07/18 01:20:59;;;;;;;5.00;3.95;;;17.50;99.90;;;;;;4984074;28;20045;-63
2022/07/18 01:23:25;;;;;;;6.53;4.57;;;17.50;99.90;;;;;;4981935;28;20124;-63
2022/07/18 01:25:51;;;;;;;7.35;4.45;;;17.50;99.90;;;;;;4979015;28;20504;-62
2022/07/18 01:28:17;;;;;;;7.03;4.88;;;17.50;99.90;;;;;;4984474;28;20050;-61
2022/07/18 01:30:43;;;;;;;8.43;4.53;;;17.50;99.90;;;;;;4980324;28;20052;-63
2022/07/18 01:33:09;;;;;;;5.97;3.90;;;17.50;99.90;;;;;;4984414;28;20053;-62
2022/07/18 01:35:35;;;;;;;8.77;4.53;;;17.40;99.90;;;;;;4981355;28;20041;-63
2022/07/18 01:38:03;;;;;;;8.50;4.15;;;17.40;99.90;;;;;;4983287;28;20709;-63
2022/07/18 01:40:29;;;;;;;6.78;4.45;;;17.40;99.90;;;;;;4983937;28;20057;-63
2022/07/18 01:42:55;;;;;;;7.55;4.28;;;17.40;99.90;;;;;;4986136;28;20480;-62
2022/07/18 01:45:22;;;;;;;6.97;4.50;;;17.30;99.90;;;;;;4982241;28;20053;-62
2022/07/18 01:47:48;;;;;;;7.30;4.75;;;17.30;99.90;;;;;;5002768;28;20058;-62
2022/07/18 01:50:14;;;;;;;7.95;4.75;;;17.30;99.90;;;;;;4978436;28;20041;-62
2022/07/18 01:52:41;;;;;;;8.82;4.50;;;17.30;99.90;;;;;;4987631;28;20144;-62
2022/07/18 01:55:08;;;;;;;9.30;4.93;;;17.20;99.90;;;;;;4981606;28;20337;-62
2022/07/18 01:57:35;;;;;;;8.55;4.90;;;17.30;99.90;;;;;;4983426;28;20700;-61
2022/07/18 02:00:03;;;;;;;9.10;5.10;;;17.20;99.90;;;;;;4998165;28;20065;-62
2022/07/18 02:02:29;;;;;;;8.88;4.95;;;17.20;99.90;;;;;;4983050;28;20673;-62
2022/07/18 02:05:01;;;;;;;7.72;4.88;;;17.20;99.90;;;;;;4986551;28;20042;-63
2022/07/18 02:07:33;;;;;;;5.57;4.20;;;17.20;99.90;;;;;;4957247;28;20056;-62
2022/07/18 02:10:03;;;;;;;8.95;5.45;;;17.10;99.90;;;;;;4996035;28;20046;-63
2022/07/18 02:12:29;;;;;;;5.85;4.53;;;17.10;99.90;;;;;;4979998;28;20078;-63
2022/07/18 02:14:55;;;;;;;7.72;5.40;;;17.10;99.90;;;;;;4944052;28;20631;-62
2022/07/18 02:17:21;;;;;;;7.70;5.65;;;17.00;99.90;;;;;;4982831;28;20780;-62
2022/07/18 02:19:47;;;;;;;7.78;4.95;;;17.00;99.90;;;;;;4934921;28;20049;-63
2022/07/18 02:22:13;;;;;;;8.85;5.38;;;17.00;99.90;;;;;;4980371;28;20061;-63
2022/07/18 02:24:39;;;;;;;9.68;5.50;;;16.90;99.90;;;;;;4985612;28;20795;-62
2022/07/18 02:27:05;;;;;;;10.68;5.75;;;16.90;99.90;;;;;;4983205;28;20883;-63
2022/07/18 02:29:30;;;;;;;10.25;5.63;;;16.90;99.90;;;;;;4980647;28;20061;-62
2022/07/18 02:31:57;;;;;;;8.73;5.75;;;16.90;99.90;;;;;;4981015;28;20050;-63
2022/07/18 02:34:24;;;;;;;7.07;5.45;;;16.90;99.90;;;;;;4986962;28;20784;-63
2022/07/18 02:36:50;;;;;;;8.57;5.72;;;16.90;99.90;;;;;;5000397;28;20045;-62
2022/07/18 02:39:17;;;;;;;7.93;5.75;;;16.90;99.90;;;;;;4974148;28;20539;-63
2022/07/18 02:41:43;;;;;;;9.20;5.45;;;16.90;99.90;;;;;;4988930;28;20653;-63
2022/07/18 02:44:09;;;;;;;8.45;5.90;;;16.90;99.90;;;;;;4981369;28;20046;-63
2022/07/18 02:46:35;;;;;;;10.60;5.80;;;16.90;99.90;;;;;;4967038;28;20184;-63
2022/07/18 02:49:01;;;;;;;9.48;5.32;;;17.00;99.90;;;;;;4980529;28;20412;-63
2022/07/18 02:51:28;;;;;;;10.65;6.05;;;17.00;99.90;;;;;;4983062;28;20053;-63
2022/07/18 02:53:54;;;;;;;7.75;5.10;;;17.00;99.90;;;;;;4983654;28;20125;-63
2022/07/18 02:56:20;;;;;;;8.18;5.85;;;17.00;99.90;;;;;;4977895;28;20053;-63
2022/07/18 02:58:46;;;;;;;8.60;5.50;;;17.00;99.90;;;;;;4980633;28;20054;-62
2022/07/18 03:01:12;;;;;;;7.57;5.15;;;16.90;99.90;;;;;;4986430;28;20144;-62
2022/07/18 03:03:37;;;;;;;8.15;5.45;;;16.90;99.90;;;;;;4982677;28;20180;-62
2022/07/18 03:06:04;;;;;;;8.52;5.03;;;16.90;99.90;;;;;;4997536;28;20247;-63
2022/07/18 03:08:30;;;;;;;8.93;5.40;;;16.90;99.90;;;;;;4966372;28;21248;-62
2022/07/18 03:10:55;;;;;;;9.27;5.50;;;16.90;99.90;;;;;;4978456;28;20131;-63
2022/07/18 03:13:21;;;;;;;11.77;5.80;;;16.80;99.90;;;;;;4979972;28;20123;-63
2022/07/18 03:15:47;;;;;;;8.57;5.53;;;16.80;99.90;;;;;;4980705;28;20045;-62
2022/07/18 03:18:13;;;;;;;7.25;5.22;;;16.80;99.90;;;;;;4981934;28;20048;-62
2022/07/18 03:20:39;;;;;;;9.63;5.35;;;16.80;99.90;;;;;;4997033;28;20544;-62
2022/07/18 03:23:08;;;;;;;8.70;5.22;;;16.80;99.90;;;;;;4983660;28;20042;-63
2022/07/18 03:25:34;;;;;;;10.52;5.38;;;16.80;99.90;;;;;;4985232;28;20054;-63
2022/07/18 03:28:01;;;;;;;7.40;5.32;;;16.80;99.90;;;;;;4985988;28;20054;-63
2022/07/18 03:30:26;;;;;;;9.68;5.35;;;16.80;99.90;;;;;;4971067;28;20484;-62
2022/07/18 03:32:52;;;;;;;8.32;5.63;;;16.70;99.90;;;;;;4983522;28;20086;-63
2022/07/18 03:35:18;;;;;;;7.60;4.88;;;16.80;99.90;;;;;;4983362;28;20383;-62
2022/07/18 03:37:44;;;;;;;9.02;4.82;;;16.80;99.90;;;;;;4984534;28;20046;-62
2022/07/18 03:40:11;;;;;;;7.93;5.43;;;16.80;99.90;;;;;;4989489;28;20052;-62
2022/07/18 03:42:40;;;;;;;9.95;5.05;;;16.80;99.90;;;;;;4987632;28;20089;-63
2022/07/18 03:45:09;;;;;;;7.28;4.90;;;16.80;99.90;;;;;;5005362;28;20095;-63
2022/07/18 03:47:35;;;;;;;6.10;5.00;;;16.80;99.90;;;;;;4988210;28;20045;-63
2022/07/18 03:50:01;;;;;;;7.93;5.22;;;16.70;99.90;;;;;;4986866;28;20074;-62
2022/07/18 03:52:27;;;;;;;12.63;5.43;;;16.70;99.90;;;;;;4987433;28;20161;-62
2022/07/18 03:54:52;;;;;;;8.60;5.45;;;16.70;99.90;;;;;;4970659;28;20062;-63
2022/07/18 03:57:18;;;;;;;9.68;5.20;;;16.70;99.90;;;;;;4968352;28;20050;-62
2022/07/18 03:59:44;;;;;;;7.53;5.20;;;16.70;99.90;;;;;;4999912;28;20060;-62
2022/07/18 04:02:10;;;;;;;8.38;5.00;;;16.70;99.90;;;;;;4987568;28;20042;-63
2022/07/18 04:04:36;;;;;;;9.65;5.30;;;16.60;99.90;;;;;;4975446;28;20480;-62
2022/07/18 04:07:03;;;;;;;8.48;5.18;;;16.60;99.90;;;;;;4983488;28;20119;-63
2022/07/18 04:09:29;;;;;;;7.65;4.78;;;16.60;99.90;;;;;;4968624;28;20156;-63
2022/07/18 04:11:55;;;;;;;6.55;4.72;;;16.60;99.90;;;;;;4989140;28;20058;-62
2022/07/18 04:14:22;;;;;;;9.73;5.30;;;16.70;99.90;;;;;;4986715;28;20054;-62
2022/07/18 04:16:48;;;;;;;9.45;5.63;;;16.70;99.90;;;;;;4990927;28;20052;-63
2022/07/18 04:19:14;;;;;;;7.63;5.05;;;16.70;99.90;;;;;;4950463;28;20127;-63
2022/07/18 04:21:40;;;;;;;10.55;4.75;;;16.70;99.90;;;;;;4985429;28;20046;-62
2022/07/18 04:24:06;;;;;;;9.00;5.00;;;16.80;99.90;;;;;;4983980;28;20717;-62
2022/07/18 04:26:32;;;;;;;8.45;5.07;;;16.80;99.70;;;;;;4988551;28;20054;-63
2022/07/18 04:28:57;;;;;;;7.32;4.57;;;16.90;99.50;;;;;;4965387;28;20432;-63
2022/07/18 04:31:23;;;;;;;9.13;4.85;;;16.90;99.20;;;;;;4983040;28;20080;-63
2022/07/18 04:33:49;;;;;;;7.50;4.75;;;17.00;99.10;;;;;;4987493;28;21734;-62
2022/07/18 04:36:15;;;;;;;8.48;4.82;;;17.00;98.90;;;;;;4950987;28;20123;-62
2022/07/18 04:38:41;;;;;;;8.38;4.82;;;17.10;98.70;;;;;;4988887;28;20081;-63
2022/07/18 04:41:07;;;;;;;6.55;4.70;;;17.10;98.60;;;;;;4988300;28;20184;-63
2022/07/18 04:43:33;;;;;;;9.80;4.70;;;17.20;98.50;;;;;;4991238;28;21569;-63
2022/07/18 04:45:58;;;;;;;7.55;4.32;;;17.20;98.30;;;;;;4984692;28;20049;-62
2022/07/18 04:48:24;;;;;;;6.18;4.22;;;17.30;98.30;;;;;;4988286;28;20125;-63
2022/07/18 04:50:50;;;;;;;7.35;4.30;;;17.30;98.00;;;;;;4983625;28;20611;-63
2022/07/18 04:53:17;;;;;;;7.80;4.38;;;17.30;97.90;;;;;;4985983;28;20057;-63
2022/07/18 04:55:43;;;;;;;7.38;4.22;;;17.30;97.80;;;;;;4988068;28;20048;-63
2022/07/18 04:58:08;;;;;;;6.28;4.18;;;17.40;97.60;;;;;;4989873;28;20053;-63
2022/07/18 05:00:34;;;;;;;8.10;4.07;;;17.40;97.40;;;;;;4985580;28;20067;-62
2022/07/18 05:03:01;;;;;;;9.57;3.95;;;17.40;97.20;;;;;;4986733;28;20268;-63
2022/07/18 05:05:28;;;;;;;6.53;3.67;;;17.50;97.00;;;;;;5001339;28;20057;-62
2022/07/18 05:07:54;;;;;;;7.25;3.75;;;17.50;96.90;;;;;;4987508;28;20062;-62
2022/07/18 05:10:23;;;;;;;8.43;3.95;;;17.50;96.80;;;;;;4985864;28;20064;-63
2022/07/18 05:12:51;;;;;;;8.80;3.70;;;17.60;96.60;;;;;;4986013;28;20078;-63
2022/07/18 05:15:20;;;;;;;5.78;3.42;;;17.60;96.50;;;;;;4982709;28;20056;-62
2022/07/18 05:17:46;;;;;;;8.65;3.30;;;17.60;96.10;;;;;;4985001;28;22262;-63
2022/07/18 05:20:18;;;;;;;5.97;3.33;;;17.70;95.80;;;;;;4964122;28;20507;-62
2022/07/18 05:22:45;;;;;;;7.57;3.17;;;17.70;95.40;;;;;;4985469;28;21103;-63
2022/07/18 05:25:11;;;;;;;6.55;2.47;;;17.70;95.30;;;;;;4974897;28;20433;-62
2022/07/18 05:27:38;;;;;;;7.47;3.17;;;17.80;95.10;;;;;;4986759;28;20054;-62
2022/07/18 05:30:06;;;;;;;6.88;3.17;;;17.80;95.20;;;;;;4975466;28;20046;-63
2022/07/18 05:32:32;;;;;;;5.88;3.20;;;17.80;95.00;;;;;;4983138;28;20508;-63
2022/07/18 05:34:58;;;;;;;10.85;3.38;;;17.90;94.80;;;;;;4977809;28;20054;-63
2022/07/18 05:37:24;;;;;;;6.72;3.25;;;17.90;94.60;;;;;;4970704;28;20072;-62
2022/07/18 05:39:52;;;;;;;4.28;2.83;;;17.90;94.50;;;;;;4981702;28;20103;-63
2022/07/18 05:42:19;;;;;;;8.70;3.67;;;18.00;94.50;;;;;;4994955;28;20135;-63
2022/07/18 05:44:45;;;;;;;6.63;3.55;;;18.00;94.50;;;;;;4983895;28;20599;-63
2022/07/18 05:47:10;;;;;;;5.50;3.30;;;18.00;94.30;;;;;;4966270;28;20053;-63
2022/07/18 05:49:36;;;;;;;6.60;3.20;;;18.00;94.00;;;;;;4979326;28;20522;-63
2022/07/18 05:52:02;;;;;;;5.65;3.45;;;18.00;94.00;;;;;;4983866;28;20768;-63
2022/07/18 05:54:28;;;;;;;5.57;2.88;;;18.00;93.80;;;;;;4961721;28;20489;-63
2022/07/18 05:56:54;;;;;;;8.00;3.58;;;18.00;93.50;;;;;;4982710;28;20678;-63
2022/07/18 05:59:21;;;;;;;5.50;2.92;;;18.00;93.50;;;;;;4958036;28;20046;-63
2022/07/18 06:01:47;;;;;;;5.80;3.67;;;18.10;93.60;;;;;;4984495;28;20034;-63
2022/07/18 06:04:13;;;;;;;8.73;3.20;;;18.10;93.60;;;;;;4983625;28;20424;-63
2022/07/18 06:06:39;;;;;;;7.40;3.67;;;18.10;93.60;;;;;;4994014;28;20042;-63
2022/07/18 06:09:06;;;;;;;5.45;3.17;;;18.20;93.60;;;;;;4990814;28;20115;-63
2022/07/18 06:11:32;;;;;;;5.13;3.33;;;18.30;93.60;;;;;;4959304;28;20045;-62
2022/07/18 06:13:58;;;;;;;4.85;3.30;;;18.30;93.50;;;;;;4991474;28;20050;-63
2022/07/18 06:16:24;;;;;;;5.13;3.47;;;18.40;93.50;;;;;;5012561;28;20092;-62
2022/07/18 06:18:50;;;;;;;10.50;3.25;;;18.40;93.30;;;;;;4992509;28;20200;-63
2022/07/18 06:21:15;;;;;;;9.00;3.50;;;18.50;93.00;;;;;;4994126;28;20125;-62
2022/07/18 06:23:41;;;;;;;5.43;3.10;;;18.60;92.80;;;;;;4995453;28;20137;-63
2022/07/18 06:26:07;;;;;;;7.05;3.15;;;18.60;92.70;;;;;;4996702;28;20111;-63
2022/07/18 06:28:33;;;;;;;7.07;3.20;;;18.70;92.70;;;;;;4992440;28;20053;-63
2022/07/18 06:31:00;;;;;;;4.88;3.05;;;18.80;92.60;;;;;;4987635;28;20127;-63
2022/07/18 06:33:26;;;;;;;7.45;3.03;;;18.90;92.30;;;;;;4983533;28;20053;-63
2022/07/18 06:35:52;;;;;;;9.40;2.95;;;19.00;91.80;;;;;;4979883;28;20547;-63
2022/07/18 06:38:17;;;;;;;8.10;3.00;;;19.00;91.60;;;;;;4985921;28;20104;-63
2022/07/18 06:40:43;;;;;;;6.85;2.80;;;19.10;91.50;;;;;;4987747;28;20732;-63
2022/07/18 06:43:10;;;;;;;4.13;3.10;;;19.10;91.40;;;;;;4973484;28;20508;-63
2022/07/18 06:45:36;;;;;;;3.72;2.45;;;19.20;91.40;;;;;;4988782;28;20041;-63
2022/07/18 06:48:02;;;;;;;6.28;3.20;;;19.30;91.50;;;;;;4983544;28;20411;-63
2022/07/18 06:50:29;;;;;;;6.10;2.75;;;19.30;91.30;;;;;;4982176;28;20050;-62
2022/07/18 06:52:54;;;;;;;6.80;3.25;;;19.40;91.30;;;;;;5000017;28;20121;-63
2022/07/18 06:55:20;;;;;;;6.25;3.13;;;19.50;91.40;;;;;;4984864;28;20462;-63
2022/07/18 06:57:46;;;;;;;4.18;2.88;;;19.60;91.70;;;;;;4984135;28;20046;-63
2022/07/18 07:00:14;;;;;;;5.15;3.08;;;19.70;91.40;;;;;;4979791;28;20107;-63
2022/07/18 07:02:42;;;;;;;6.13;2.70;;;19.80;91.10;;;;;;4960740;28;20052;-63
2022/07/18 07:05:09;;;;;;;4.82;2.65;;;19.80;90.60;;;;;;4980038;28;20057;-63
2022/07/18 07:07:34;;;;;;;8.93;2.80;;;19.80;90.00;;;;;;4967322;28;20104;-63
2022/07/18 07:10:00;;;;;;;5.97;3.00;;;19.90;89.10;;;;;;4983873;28;20057;-63
2022/07/18 07:12:26;;;;;;;6.07;2.60;;;20.00;88.40;;;;;;4970355;28;20049;-63
2022/07/18 07:14:52;;;;;;;4.80;2.40;;;20.10;88.40;;;;;;4984533;28;20090;-63
2022/07/18 07:17:18;;;;;;;8.48;2.42;;;20.10;88.50;;;;;;4987764;28;20057;-63
2022/07/18 07:19:44;;;;;;;6.05;2.40;;;20.20;88.90;;;;;;4985247;28;20049;-63
2022/07/18 07:22:09;;;;;;;5.78;2.75;;;20.20;88.90;;;;;;4985964;28;20696;-63
2022/07/18 07:24:38;;;;;;;7.53;2.38;;;20.40;88.70;;;;;;4990658;28;20404;-63
2022/07/18 07:27:04;;;;;;;6.38;2.58;;;20.50;88.70;;;;;;5001702;28;20057;-63
2022/07/18 07:29:30;;;;;;;4.65;2.30;;;20.60;88.50;;;;;;4986473;28;20127;-63
2022/07/18 07:31:56;;;;;;;4.78;2.63;;;20.80;88.40;;;;;;4971199;28;20046;-63
2022/07/18 07:34:22;;;;;;;5.90;2.47;;;20.90;88.00;;;;;;4987451;28;20409;-63
2022/07/18 07:36:47;;;;;;;4.45;2.47;;;21.10;87.40;;;;;;4985156;28;20057;-64
2022/07/18 07:39:14;;;;;;;4.82;2.35;;;21.20;87.50;;;;;;4989536;28;20679;-62
2022/07/18 07:41:40;;;;;;;5.75;2.50;;;21.40;87.40;;;;;;4985259;28;20103;-63
2022/07/18 07:44:06;;;;;;;6.93;2.33;;;21.50;86.30;;;;;;4978192;28;20046;-63
2022/07/18 07:46:32;;;;;;;7.63;2.60;;;21.60;85.00;;;;;;4994753;28;20129;-63
2022/07/18 07:48:57;;;;;;;4.45;2.35;;;21.70;85.20;;;;;;4971842;28;20050;-64
2022/07/18 07:51:23;;;;;;;9.52;2.45;;;21.70;85.60;;;;;;4987016;28;20515;-63
2022/07/18 07:53:49;;;;;;;5.55;2.28;;;21.80;83.70;;;;;;4988233;28;20259;-63
2022/07/18 07:56:18;;;;;;;4.63;2.42;;;21.90;82.70;;;;;;4989653;28;20132;-63
2022/07/18 07:58:45;;;;;;;4.68;2.15;;;22.00;81.60;;;;;;4989029;28;20038;-63
2022/07/18 08:01:11;;;;;;;8.45;2.45;;;22.10;80.80;;;;;;4989260;28;20050;-64
2022/07/18 08:03:38;;;;;;;5.55;2.20;;;22.30;81.10;;;;;;4988791;28;20050;-63
2022/07/18 08:06:04;;;;;;;5.88;2.05;;;22.50;80.10;;;;;;4983312;28;20182;-64
2022/07/18 08:08:30;;;;;;;5.30;2.10;;;22.60;78.60;;;;;;4984208;28;20395;-63
2022/07/18 08:10:56;;;;;;;4.07;2.13;;;22.60;77.20;;;;;;5003114;28;20053;-63
2022/07/18 08:13:22;;;;;;;8.63;2.08;;;22.60;76.30;;;;;;4989401;28;20050;-64
2022/07/18 08:15:48;;;;;;;6.15;2.33;;;22.60;76.40;;;;;;4986432;28;20045;-62
2022/07/18 08:18:14;;;;;;;7.70;2.25;;;22.60;77.20;;;;;;4985548;28;20075;-63
2022/07/18 08:20:40;;;;;;;3.42;1.88;;;22.70;77.20;;;;;;4988201;28;20058;-63
2022/07/18 08:23:08;;;;;;;5.93;2.13;;;22.90;76.60;;;;;;4968895;28;20080;-63
2022/07/18 08:25:38;;;;;;;7.30;2.20;;;23.00;75.80;;;;;;4986190;28;20500;-63
2022/07/18 08:28:06;;;;;;;3.45;1.70;;;23.20;74.50;;;;;;4970142;28;20409;-64
2022/07/18 08:30:33;;;;;;;4.47;1.95;;;23.40;74.00;;;;;;4983425;28;20050;-64
2022/07/18 08:33:00;;;;;;;4.88;1.98;;;23.60;72.40;;;;;;4992217;28;20061;-64
2022/07/18 08:35:28;;;;;;;4.95;1.50;;;23.80;70.20;;;;;;4983723;28;20058;-63
2022/07/18 08:37:53;;;;;;;5.03;1.70;;;23.90;69.50;;;;;;4984939;28;20103;-63
2022/07/18 08:40:20;;;;;;;7.70;1.65;;;24.10;69.20;;;;;;4987344;28;20058;-63
2022/07/18 08:42:49;;;;;;;4.80;1.50;;;24.30;68.90;;;;;;4984747;28;20524;-64
2022/07/18 08:45:15;;;;;;;5.47;1.80;;;24.30;68.10;;;;;;4989552;28;20046;-64
2022/07/18 08:47:44;;;;;;;2.60;1.52;;;24.40;67.30;;;;;;5003682;28;20054;-64
2022/07/18 08:50:10;;;;;;;5.13;1.50;;;24.50;67.80;;;;;;4983363;28;20053;-64
2022/07/18 08:52:37;;;;;;;8.20;1.85;;;24.60;67.50;;;;;;4970954;28;20045;-63
2022/07/18 08:55:03;;;;;;;9.48;1.83;;;24.60;66.40;;;;;;4987904;28;20480;-64
2022/07/18 08:57:29;;;;;;;3.70;1.58;;;24.60;65.60;;;;;;4970298;28;20057;-64
2022/07/18 08:59:55;;;;;;;6.63;1.70;;;24.60;65.50;;;;;;4982669;28;20500;-64
2022/07/18 09:02:26;;;;;;;3.28;1.52;;;24.60;65.20;;;;;;4970421;28;20212;-64
2022/07/18 09:04:51;;;;;;;4.63;1.60;;;24.60;65.30;;;;;;4985319;28;20124;-64
2022/07/18 09:07:30;;;;;;;5.53;1.60;;;24.60;64.80;;;;;;4971956;28;21166;-64
2022/07/18 09:09:59;;;;;;;5.70;1.45;;;24.60;66.10;;;;;;4983223;28;20101;-64
2022/07/18 09:12:26;;;;;;;7.35;1.98;;;24.70;67.10;;;;;;5002478;28;20050;-64
2022/07/18 09:14:53;;;;;;;10.25;2.22;;;24.80;67.20;;;;;;4982563;28;20042;-64
2022/07/18 09:17:25;;;;;;;5.90;1.77;;;24.90;66.00;;;;;;4984925;28;20696;-63
2022/07/18 09:20:03;;;;;;;6.22;2.08;;;25.00;65.40;;;;;;4985573;28;20050;-64
2022/07/18 09:22:34;;;;;;;3.80;1.80;;;25.00;65.50;;;;;;4986406;28;20046;-64
2022/07/18 09:25:03;;;;;;;9.15;2.10;;;25.10;65.50;;;;;;4962391;28;20066;-64
2022/07/18 09:27:39;;;;;;;5.10;1.88;;;25.20;65.00;;;;;;4986458;28;20073;-64
2022/07/18 09:30:23;;;;;;;5.63;2.08;;;25.30;64.70;;;;;;4990704;28;20046;-63
2022/07/18 09:33:06;;;;;;;5.10;2.00;;;25.40;65.00;;;;;;4983471;28;20055;-65
2022/07/18 09:35:41;;;;;;;6.47;1.90;;;25.50;64.90;;;;;;4967082;28;20504;-68
2022/07/18 09:38:08;;;;;;;2.45;1.40;;;25.70;65.50;;;;;;4989449;28;20124;-67
2022/07/18 09:40:45;;;;;;;6.00;1.85;;;25.90;64.30;;;;;;4989162;28;20543;-67
2022/07/18 09:43:14;;;;;;;3.78;1.55;;;26.10;63.90;;;;;;4989389;28;20057;-67
2022/07/18 09:45:43;;;;;;;5.13;1.73;;;26.20;62.30;;;;;;4978094;28;20049;-68
2022/07/18 09:48:13;;;;;;;6.55;1.88;;;26.30;60.90;;;;;;4962296;28;20042;-67
2022/07/18 09:50:43;;;;;;;5.20;1.70;;;26.40;61.20;;;;;;4988656;28;20505;-68
2022/07/18 09:53:25;;;;;;;10.23;1.70;;;26.50;60.70;;;;;;4990791;28;20501;-69
2022/07/18 09:55:52;;;;;;;6.68;1.80;;;26.60;60.00;;;;;;4971309;28;20077;-67
2022/07/18 09:58:29;;;;;;;5.18;2.28;;;26.70;59.40;;;;;;4991295;28;20044;-67
2022/07/18 10:00:57;;;;;;;6.75;1.77;;;26.90;60.00;;;;;;4991496;28;20112;-68
2022/07/18 10:03:24;;;;;;;6.75;1.77;;;27.10;59.60;;;;;;4990415;28;20133;-68
2022/07/18 10:05:52;;;;;;;7.15;1.90;;;27.20;59.90;;;;;;4987363;28;20240;-68
2022/07/18 10:08:21;;;;;;;5.05;1.80;;;27.30;58.30;;;;;;5005222;28;20052;-67
2022/07/18 10:10:49;;;;;;;3.75;1.60;;;27.30;59.30;;;;;;4969578;28;20048;-68
2022/07/18 10:13:16;;;;;;;5.95;1.73;;;27.50;59.40;;;;;;4994190;28;20124;-67
2022/07/18 10:15:44;;;;;;;8.85;2.45;;;27.70;58.70;;;;;;4988976;28;20049;-68
2022/07/18 10:18:17;;;;;;;4.85;1.60;;;27.90;58.30;;;;;;4989487;28;20388;-67
2022/07/18 10:20:50;;;;;;;8.85;2.05;;;28.00;58.40;;;;;;4991209;28;20456;-68
2022/07/18 10:23:22;;;;;;;5.93;1.90;;;28.10;57.30;;;;;;4991920;28;20132;-67
2022/07/18 10:26:15;;;;;;;4.97;1.90;;;28.20;57.30;;;;;;4988850;28;20084;-67
2022/07/18 10:28:56;;;;;;;3.72;1.92;;;28.30;57.30;;;;;;4974783;28;20054;-68
2022/07/18 10:31:42;;;;;;;3.90;2.20;;;28.30;57.30;;;;;;4989532;28;20070;-68
2022/07/18 10:34:07;;;;;;;5.45;2.33;;;28.40;55.40;;;;;;4990751;28;20046;-67
2022/07/18 10:36:35;;;;;;;5.15;2.22;;;28.50;55.40;;;;;;4988971;28;20401;-67
2022/07/18 10:39:08;;;;;;;4.38;2.38;;;28.60;55.50;;;;;;4988524;28;20503;-67
2022/07/18 10:41:43;;;;;;;4.20;2.05;;;28.60;55.70;;;;;;4988613;28;20578;-68
2022/07/18 10:44:25;;;;;;;2.67;1.90;;;28.70;56.90;;;;;;4972976;28;20054;-67
2022/07/18 10:47:03;;;;;;;7.85;2.30;;;28.90;56.40;;;;;;4987645;28;20057;-68
2022/07/18 10:49:47;;;;;;;5.00;2.03;;;29.10;56.80;;;;;;4987305;28;20107;-67
2022/07/18 10:52:33;;;;;;;6.18;2.30;;;29.30;56.20;;;;;;4984010;28;21569;-67
2022/07/18 10:57:32;;;;;;;4.68;2.35;;;29.70;54.30;;;;;;4989426;28;20154;-67
2022/07/18 11:00:13;;;;;;;5.93;2.78;;;29.80;53.10;;;;;;5006749;28;20491;-67
2022/07/18 11:02:45;;;;;;;4.40;2.58;;;29.90;51.70;;;;;;4988341;28;20404;-67
2022/07/18 11:05:23;;;;;;;5.00;2.70;;;30.00;51.70;;;;;;4989241;28;20426;-67
2022/07/18 11:07:58;;;;;;;5.88;2.90;;;30.10;50.40;;;;;;4988656;28;20053;-67
2022/07/18 11:10:46;;;;;;;2.58;2.30;;;30.20;50.20;;;;;;4987875;28;20056;-67
2022/07/18 11:13:33;;;;;;;7.05;2.58;;;30.20;50.40;;;;;;4994279;28;20045;-67
2022/07/18 11:16:06;;;;;;;5.25;2.80;;;30.30;49.40;;;;;;4987254;28;20621;-67
2022/07/18 11:18:55;;;;;;;4.53;2.58;;;30.40;49.00;;;;;;4988980;28;20045;-67
2022/07/18 11:21:32;;;;;;;5.25;2.75;;;30.50;49.90;;;;;;4982687;28;20046;-67
2022/07/18 11:24:09;;;;;;;5.15;2.50;;;30.60;49.40;;;;;;4983699;28;20062;-67
2022/07/18 11:26:43;;;;;;;5.38;2.90;;;30.80;49.00;;;;;;4969342;28;20060;-66
2022/07/18 11:29:11;;;;;;;6.72;3.20;;;30.90;48.30;;;;;;4972933;28;20054;-67
2022/07/18 11:31:56;;;;;;;4.43;2.90;;;31.10;47.40;;;;;;4985258;28;20049;-67
2022/07/18 11:34:23;;;;;;;4.97;3.20;;;31.40;47.70;;;;;;4988435;28;20046;-67
2022/07/18 11:36:50;;;;;;;6.18;3.08;;;31.40;46.70;;;;;;4989114;28;20057;-66
2022/07/18 11:39:31;;;;;;;5.97;2.90;;;31.50;46.80;;;;;;4989233;28;20133;-67
2022/07/18 11:41:57;;;;;;;4.20;2.70;;;31.60;47.30;;;;;;4990408;28;20215;-67
2022/07/18 11:44:26;;;;;;;8.60;3.88;;;31.70;45.60;;;;;;4986776;28;20689;-67
2022/07/18 11:47:07;;;;;;;5.10;3.00;;;31.60;44.90;;;;;;4965376;28;20099;-68
2022/07/18 11:49:35;;;;;;;4.70;3.08;;;31.60;45.60;;;;;;4984758;28;20500;-67
2022/07/18 11:52:01;;;;;;;4.55;3.10;;;31.60;45.00;;;;;;4988532;28;20144;-67
2022/07/18 11:54:28;;;;;;;5.32;3.10;;;31.60;44.80;;;;;;4986587;28;20041;-67
2022/07/18 11:56:55;;;;;;;5.30;3.00;;;31.60;45.10;;;;;;4988704;28;21505;-66
2022/07/18 11:59:22;;;;;;;3.97;3.20;;;31.70;46.20;;;;;;4987930;28;20086;-67
2022/07/18 12:01:55;;;;;;;6.05;3.35;;;32.00;44.90;;;;;;5008027;28;20054;-66
2022/07/18 12:04:23;;;;;;;8.10;3.38;;;32.20;45.00;;;;;;5007054;28;20045;-66
2022/07/18 12:07:22;;;;;;;5.55;3.30;;;32.50;45.20;;;;;;4990063;28;21804;-67
2022/07/18 12:09:49;;;;;;;5.55;2.92;;;32.60;44.60;;;;;;4972517;28;20050;-67
2022/07/18 12:12:18;;;;;;;4.15;2.90;;;32.70;43.90;;;;;;5006679;28;20049;-67
2022/07/18 12:14:57;;;;;;;3.75;2.72;;;32.70;43.80;;;;;;4990970;28;20041;-67
2022/07/18 12:17:23;;;;;;;4.10;2.92;;;32.70;44.30;;;;;;4993072;28;20096;-67
2022/07/18 12:19:49;;;;;;;4.15;3.00;;;32.80;44.40;;;;;;4992323;28;20045;-67
2022/07/18 12:22:15;;;;;;;5.63;3.17;;;32.90;44.80;;;;;;5008348;28;20615;-68
2022/07/18 12:24:54;;;;;;;8.18;3.22;;;33.10;44.40;;;;;;4990844;28;20420;-67
2022/07/18 12:27:20;;;;;;;6.20;3.25;;;33.20;44.70;;;;;;4989896;28;21007;-67
2022/07/18 12:29:59;;;;;;;3.85;2.97;;;33.30;44.00;;;;;;4986953;28;20096;-67
2022/07/18 12:32:26;;;;;;;3.90;3.00;;;33.50;46.10;;;;;;5008853;28;20052;-67
2022/07/18 12:35:04;;;;;;;5.00;3.13;;;33.60;44.20;;;;;;4990283;28;20045;-67
2022/07/18 12:37:30;;;;;;;3.80;3.00;;;33.60;43.70;;;;;;4992471;28;20064;-67
2022/07/18 12:39:58;;;;;;;3.60;2.90;;;33.80;44.20;;;;;;5006109;28;20469;-66
2022/07/18 12:42:30;;;;;;;3.83;3.00;;;34.00;44.80;;;;;;4987588;28;20053;-67
2022/07/18 12:44:56;;;;;;;7.63;2.90;;;34.20;43.90;;;;;;4991471;28;20488;-66
2022/07/18 12:47:21;;;;;;;6.35;2.72;;;34.30;43.60;;;;;;4993841;28;20107;-67
2022/07/18 12:49:47;;;;;;;4.05;2.80;;;34.30;44.10;;;;;;4990724;28;20628;-67
2022/07/18 12:52:13;;;;;;;3.85;2.90;;;34.40;44.40;;;;;;4987266;28;20461;-67
2022/07/18 12:54:39;;;;;;;5.55;3.13;;;34.60;45.20;;;;;;4971918;28;20780;-67